Main page
METAR-TAF:

METAR-TAF

Airports :

Mehrabad International Airport

Tehran, Iran

latitude: 35-41N, longitude: 051-21E, elevation: 1204 m

Current weather observation

The report was made 38 minutes ago, at 05:00 UTC
Wind 4 kt from the South/Southwest
Temperature 28°C
Humidity 28%
Pressure 1015 hPa
Visibility 10 km or more
no clouds below 1500 m and no cumulonimbus

METAR: OIII 150500Z 21004KT CAVOK 28/08 Q1014 A2997 NOSIG

Time: 10:08 (05:38 UTC)

Forecast

The report was made 38 minutes ago, at 05:00 UTC
Forecast valid from 15 at 06 UTC to 16 at 12 UTC
Wind 10 kt from the South/Southeast
Visibility 10 km or more
no clouds below 1500 m and no cumulonimbus
Becoming
from 15 at 20 UTC to 15 at 22 UTC
Wind 8 kt from the North/Northwest
Becoming
from 16 at 04 UTC to 16 at 06 UTC
Wind 10 kt from the South/Southeast

TAF: OIII 150500Z 1506/1612 15005MPS CAVOK BECMG 1520/1522 33004MPS BECMG 1604/1606 15005MPS

Weather observations and forecasts of more than 4000 airports (METAR and TAF reports).

The available stations are represented by yellow and red dots on the map.

Hover mouse over dot to see the name of the station.

Then click to see weather observations and forecasts.

To change the map : click on the green buttons with a black cross to zoom in, on the green button with a dash to zoom out, or on the green arrows for adjacent maps.


METAR-TAF: